Pagina principale
METAR-TAF:

METAR-TAF

Aeroporti :

Aeroporto di Trieste-Ronchi dei Legionari

Trieste / Ronchi dei Legionari, Italia

latitudine: 45-49N, longitudine: 013-29E, altezza: 12 m

Osservazione

Il bollettino è stato emesso 2 ore e 48 minuti fa, alle 05:20 UTC
Vento 4 kt da nord-est
Temperature 23°C
Umidità 69%
Pressione 1015 hPa
Visibilità 10 km o più
nessuna nube inferiore a 1500 m e nessun cumulonembo

METAR: LIPQ 210520Z 04004KT CAVOK 23/17 Q1015

Ora: 10:08 (08:08 UTC)

Previsione

Il bollettino è stato emesso 3 ore e 8 minuti fa, alle 05:00 UTC
Previsione valida dal 21 alle 06 UTC al 22 alle 06 UTC
Vento 5 kt da direzioni variabili
Visibilità 10 km o più
nessuna nube inferiore a 1500 m e nessun cumulonembo

TAF: LIPQ 210500Z 2106/2206 VRB05KT CAVOK

Osservazioni e previsioni meteorologiche di più di 4000 aeroporti (messaggi METAR e TAF).

Le stazioni disponibili sono rappresentate dai dischi gialli e rossi sulla carta.

Puntare il mouse per vedere il nome della stazione.

Clicca sopra per visualizzare le osservazioni e previsioni meteorologiche.

Per cambiare la mappa : fare clic sui pulsanti verdi con una croce nera per ingrandire, il pulsante verde con un trattino per diminuire, o sulla freccia verde per le mappe adiacenti.


METAR-TAF: